sensor_id;sensor_type;location;lat;lon;timestamp;P1;durP1;ratioP1;P2;durP2;ratioP2
6207;SDS011;3137;51.550;7.060;2023-03-01T00:02:01;19.77;;;14.57;;
6207;SDS011;3137;51.550;7.060;2023-03-01T00:04:28;19.57;;;13.10;;
6207;SDS011;3137;51.550;7.060;2023-03-01T00:06:55;19.40;;;14.07;;
6207;SDS011;3137;51.550;7.060;2023-03-01T00:09:21;19.43;;;14.57;;
6207;SDS011;3137;51.550;7.060;2023-03-01T00:11:47;20.00;;;12.23;;
6207;SDS011;3137;51.550;7.060;2023-03-01T00:14:14;17.63;;;13.23;;
6207;SDS011;3137;51.550;7.060;2023-03-01T00:16:42;20.53;;;14.13;;
6207;SDS011;3137;51.550;7.060;2023-03-01T00:19:14;20.57;;;12.93;;
6207;SDS011;3137;51.550;7.060;2023-03-01T00:21:42;18.10;;;14.37;;
6207;SDS011;3137;51.550;7.060;2023-03-01T00:24:08;15.27;;;11.80;;
6207;SDS011;3137;51.550;7.060;2023-03-01T00:26:35;16.80;;;13.37;;
6207;SDS011;3137;51.550;7.060;2023-03-01T00:29:02;17.30;;;13.57;;
6207;SDS011;3137;51.550;7.060;2023-03-01T00:31:30;20.50;;;14.70;;
6207;SDS011;3137;51.550;7.060;2023-03-01T00:33:59;17.43;;;13.77;;
6207;SDS011;3137;51.550;7.060;2023-03-01T00:36:29;14.70;;;12.97;;
6207;SDS011;3137;51.550;7.060;2023-03-01T00:38:58;20.87;;;13.33;;
6207;SDS011;3137;51.550;7.060;2023-03-01T00:41:25;19.73;;;14.30;;
6207;SDS011;3137;51.550;7.060;2023-03-01T00:43:53;15.57;;;13.37;;
6207;SDS011;3137;51.550;7.060;2023-03-01T00:46:21;15.57;;;13.30;;
6207;SDS011;3137;51.550;7.060;2023-03-01T00:48:49;27.47;;;14.87;;
6207;SDS011;3137;51.550;7.060;2023-03-01T00:51:16;20.47;;;12.97;;
6207;SDS011;3137;51.550;7.060;2023-03-01T00:53:45;16.60;;;13.20;;
6207;SDS011;3137;51.550;7.060;2023-03-01T00:56:13;16.30;;;13.40;;
6207;SDS011;3137;51.550;7.060;2023-03-01T00:58:40;16.77;;;13.53;;
6207;SDS011;3137;51.550;7.060;2023-03-01T01:01:12;18.37;;;13.13;;
6207;SDS011;3137;51.550;7.060;2023-03-01T01:03:48;18.43;;;13.10;;
6207;SDS011;3137;51.550;7.060;2023-03-01T01:06:17;18.53;;;13.10;;
6207;SDS011;3137;51.550;7.060;2023-03-01T01:08:49;14.30;;;12.50;;
6207;SDS011;3137;51.550;7.060;2023-03-01T01:11:18;20.63;;;12.13;;
6207;SDS011;3137;51.550;7.060;2023-03-01T01:13:45;16.00;;;13.30;;
6207;SDS011;3137;51.550;7.060;2023-03-01T01:16:16;19.03;;;13.10;;
6207;SDS011;3137;51.550;7.060;2023-03-01T01:18:45;16.53;;;12.93;;
6207;SDS011;3137;51.550;7.060;2023-03-01T01:21:13;16.30;;;13.37;;
6207;SDS011;3137;51.550;7.060;2023-03-01T01:23:41;15.83;;;13.10;;
6207;SDS011;3137;51.550;7.060;2023-03-01T01:26:15;18.70;;;13.27;;
6207;SDS011;3137;51.550;7.060;2023-03-01T01:28:42;17.83;;;13.47;;
6207;SDS011;3137;51.550;7.060;2023-03-01T01:31:08;16.03;;;13.07;;
6207;SDS011;3137;51.550;7.060;2023-03-01T01:33:35;19.17;;;14.00;;
6207;SDS011;3137;51.550;7.060;2023-03-01T01:36:06;19.30;;;12.93;;
6207;SDS011;3137;51.550;7.060;2023-03-01T01:38:34;17.17;;;13.93;;
6207;SDS011;3137;51.550;7.060;2023-03-01T01:41:01;28.90;;;13.20;;
6207;SDS011;3137;51.550;7.060;2023-03-01T01:43:30;15.30;;;13.20;;
6207;SDS011;3137;51.550;7.060;2023-03-01T01:46:01;20.90;;;12.90;;
6207;SDS011;3137;51.550;7.060;2023-03-01T01:48:39;25.03;;;12.80;;
6207;SDS011;3137;51.550;7.060;2023-03-01T01:51:12;27.03;;;13.90;;
6207;SDS011;3137;51.550;7.060;2023-03-01T01:53:43;19.10;;;13.67;;
6207;SDS011;3137;51.550;7.060;2023-03-01T01:56:12;20.63;;;12.87;;
6207;SDS011;3137;51.550;7.060;2023-03-01T01:58:42;20.40;;;14.20;;
6207;SDS011;3137;51.550;7.060;2023-03-01T02:01:10;19.83;;;13.90;;
6207;SDS011;3137;51.550;7.060;2023-03-01T02:03:38;22.93;;;13.97;;
6207;SDS011;3137;51.550;7.060;2023-03-01T02:06:12;22.27;;;14.37;;
6207;SDS011;3137;51.550;7.060;2023-03-01T02:08:46;19.13;;;14.17;;
6207;SDS011;3137;51.550;7.060;2023-03-01T02:11:15;21.87;;;14.47;;
6207;SDS011;3137;51.550;7.060;2023-03-01T02:13:43;20.57;;;14.60;;
6207;SDS011;3137;51.550;7.060;2023-03-01T02:16:13;16.40;;;13.60;;
6207;SDS011;3137;51.550;7.060;2023-03-01T02:18:41;16.43;;;13.90;;
6207;SDS011;3137;51.550;7.060;2023-03-01T02:23:50;16.90;;;13.20;;
6207;SDS011;3137;51.550;7.060;2023-03-01T02:28:43;18.30;;;13.33;;
6207;SDS011;3137;51.550;7.060;2023-03-01T02:31:13;14.33;;;12.80;;
6207;SDS011;3137;51.550;7.060;2023-03-01T02:34:00;15.47;;;12.37;;
6207;SDS011;3137;51.550;7.060;2023-03-01T02:36:31;17.07;;;12.93;;
6207;SDS011;3137;51.550;7.060;2023-03-01T02:39:03;25.70;;;14.73;;
6207;SDS011;3137;51.550;7.060;2023-03-01T02:41:34;21.73;;;14.63;;
6207;SDS011;3137;51.550;7.060;2023-03-01T02:44:03;19.90;;;13.07;;
6207;SDS011;3137;51.550;7.060;2023-03-01T02:46:30;20.57;;;14.10;;
6207;SDS011;3137;51.550;7.060;2023-03-01T02:48:57;18.53;;;13.67;;
6207;SDS011;3137;51.550;7.060;2023-03-01T02:56:55;19.83;;;13.83;;
6207;SDS011;3137;51.550;7.060;2023-03-01T02:59:24;18.93;;;13.50;;
6207;SDS011;3137;51.550;7.060;2023-03-01T03:01:55;20.67;;;13.87;;
6207;SDS011;3137;51.550;7.060;2023-03-01T03:04:22;18.57;;;13.73;;
6207;SDS011;3137;51.550;7.060;2023-03-01T03:06:49;19.07;;;14.40;;
6207;SDS011;3137;51.550;7.060;2023-03-01T03:09:17;18.33;;;13.77;;
6207;SDS011;3137;51.550;7.060;2023-03-01T03:11:45;31.37;;;13.60;;
6207;SDS011;3137;51.550;7.060;2023-03-01T03:14:12;16.53;;;12.77;;
6207;SDS011;3137;51.550;7.060;2023-03-01T03:16:44;21.57;;;13.83;;
6207;SDS011;3137;51.550;7.060;2023-03-01T03:19:13;21.63;;;13.47;;
6207;SDS011;3137;51.550;7.060;2023-03-01T03:21:40;26.97;;;15.20;;
6207;SDS011;3137;51.550;7.060;2023-03-01T03:24:06;21.33;;;13.30;;
6207;SDS011;3137;51.550;7.060;2023-03-01T03:26:32;20.27;;;12.83;;
6207;SDS011;3137;51.550;7.060;2023-03-01T03:28:59;18.97;;;14.50;;
6207;SDS011;3137;51.550;7.060;2023-03-01T03:31:25;19.03;;;14.83;;
6207;SDS011;3137;51.550;7.060;2023-03-01T03:33:52;20.03;;;14.63;;
6207;SDS011;3137;51.550;7.060;2023-03-01T03:36:19;22.13;;;14.67;;
6207;SDS011;3137;51.550;7.060;2023-03-01T03:38:47;17.40;;;13.50;;
6207;SDS011;3137;51.550;7.060;2023-03-01T03:41:15;17.83;;;13.20;;
6207;SDS011;3137;51.550;7.060;2023-03-01T03:43:42;23.30;;;13.40;;
6207;SDS011;3137;51.550;7.060;2023-03-01T03:46:10;24.87;;;15.43;;
6207;SDS011;3137;51.550;7.060;2023-03-01T03:48:38;18.87;;;13.97;;
6207;SDS011;3137;51.550;7.060;2023-03-01T03:51:09;22.97;;;14.90;;
6207;SDS011;3137;51.550;7.060;2023-03-01T03:53:36;17.63;;;12.67;;
6207;SDS011;3137;51.550;7.060;2023-03-01T03:56:03;19.87;;;13.93;;
6207;SDS011;3137;51.550;7.060;2023-03-01T03:58:31;21.47;;;14.07;;
6207;SDS011;3137;51.550;7.060;2023-03-01T04:00:58;23.43;;;13.93;;
6207;SDS011;3137;51.550;7.060;2023-03-01T04:03:27;19.30;;;13.53;;
6207;SDS011;3137;51.550;7.060;2023-03-01T04:05:56;21.67;;;14.30;;
6207;SDS011;3137;51.550;7.060;2023-03-01T04:08:24;19.23;;;14.30;;
6207;SDS011;3137;51.550;7.060;2023-03-01T04:10:51;25.13;;;13.63;;
6207;SDS011;3137;51.550;7.060;2023-03-01T04:13:22;19.33;;;13.13;;
6207;SDS011;3137;51.550;7.060;2023-03-01T04:15:51;14.93;;;12.63;;
6207;SDS011;3137;51.550;7.060;2023-03-01T04:18:19;27.13;;;14.63;;
6207;SDS011;3137;51.550;7.060;2023-03-01T04:20:47;21.03;;;12.77;;
6207;SDS011;3137;51.550;7.060;2023-03-01T04:23:15;19.50;;;12.67;;
6207;SDS011;3137;51.550;7.060;2023-03-01T04:25:47;19.27;;;12.97;;
6207;SDS011;3137;51.550;7.060;2023-03-01T04:28:30;17.77;;;13.77;;
6207;SDS011;3137;51.550;7.060;2023-03-01T04:31:02;18.73;;;13.43;;
6207;SDS011;3137;51.550;7.060;2023-03-01T04:33:40;25.90;;;13.30;;
6207;SDS011;3137;51.550;7.060;2023-03-01T04:36:18;17.97;;;13.30;;
6207;SDS011;3137;51.550;7.060;2023-03-01T04:38:46;19.73;;;14.07;;
6207;SDS011;3137;51.550;7.060;2023-03-01T04:41:16;18.17;;;13.60;;
6207;SDS011;3137;51.550;7.060;2023-03-01T04:43:44;22.90;;;13.73;;
6207;SDS011;3137;51.550;7.060;2023-03-01T04:46:12;18.77;;;13.17;;
6207;SDS011;3137;51.550;7.060;2023-03-01T04:48:41;20.00;;;13.50;;
6207;SDS011;3137;51.550;7.060;2023-03-01T04:51:09;26.43;;;13.73;;
6207;SDS011;3137;51.550;7.060;2023-03-01T04:53:35;29.67;;;13.63;;
6207;SDS011;3137;51.550;7.060;2023-03-01T04:56:02;17.73;;;13.97;;
6207;SDS011;3137;51.550;7.060;2023-03-01T04:58:29;26.73;;;14.73;;
6207;SDS011;3137;51.550;7.060;2023-03-01T05:00:56;23.07;;;14.50;;
6207;SDS011;3137;51.550;7.060;2023-03-01T05:03:22;23.83;;;14.60;;
6207;SDS011;3137;51.550;7.060;2023-03-01T05:05:49;20.43;;;13.23;;
6207;SDS011;3137;51.550;7.060;2023-03-01T05:08:17;22.53;;;14.10;;
6207;SDS011;3137;51.550;7.060;2023-03-01T05:10:45;24.70;;;14.77;;
6207;SDS011;3137;51.550;7.060;2023-03-01T05:13:16;15.80;;;13.23;;
6207;SDS011;3137;51.550;7.060;2023-03-01T05:15:47;25.70;;;15.00;;
6207;SDS011;3137;51.550;7.060;2023-03-01T05:18:19;21.70;;;14.40;;
6207;SDS011;3137;51.550;7.060;2023-03-01T05:20:45;21.40;;;14.67;;
6207;SDS011;3137;51.550;7.060;2023-03-01T05:23:12;21.20;;;14.37;;
6207;SDS011;3137;51.550;7.060;2023-03-01T05:25:38;21.93;;;13.77;;
6207;SDS011;3137;51.550;7.060;2023-03-01T05:28:07;21.07;;;14.57;;
6207;SDS011;3137;51.550;7.060;2023-03-01T05:30:37;23.57;;;13.53;;
6207;SDS011;3137;51.550;7.060;2023-03-01T05:33:07;15.27;;;12.97;;
6207;SDS011;3137;51.550;7.060;2023-03-01T05:35:43;25.03;;;16.03;;
6207;SDS011;3137;51.550;7.060;2023-03-01T05:38:11;25.77;;;14.40;;
6207;SDS011;3137;51.550;7.060;2023-03-01T05:40:42;23.63;;;15.07;;
6207;SDS011;3137;51.550;7.060;2023-03-01T05:43:10;22.10;;;14.83;;
6207;SDS011;3137;51.550;7.060;2023-03-01T05:45:38;23.43;;;16.13;;
6207;SDS011;3137;51.550;7.060;2023-03-01T05:48:06;24.23;;;14.80;;
6207;SDS011;3137;51.550;7.060;2023-03-01T05:50:34;21.33;;;14.40;;
6207;SDS011;3137;51.550;7.060;2023-03-01T05:53:10;29.17;;;15.60;;
6207;SDS011;3137;51.550;7.060;2023-03-01T05:55:41;19.20;;;14.27;;
6207;SDS011;3137;51.550;7.060;2023-03-01T05:58:13;28.00;;;15.53;;
6207;SDS011;3137;51.550;7.060;2023-03-01T06:00:41;24.60;;;16.03;;
6207;SDS011;3137;51.550;7.060;2023-03-01T06:03:09;24.67;;;16.10;;
6207;SDS011;3137;51.550;7.060;2023-03-01T06:05:38;21.20;;;15.97;;
6207;SDS011;3137;51.550;7.060;2023-03-01T06:08:05;21.80;;;15.87;;
6207;SDS011;3137;51.550;7.060;2023-03-01T06:10:32;29.37;;;16.10;;
6207;SDS011;3137;51.550;7.060;2023-03-01T06:12:58;28.13;;;17.10;;
6207;SDS011;3137;51.550;7.060;2023-03-01T06:15:25;27.50;;;16.43;;
6207;SDS011;3137;51.550;7.060;2023-03-01T06:17:53;32.63;;;17.73;;
6207;SDS011;3137;51.550;7.060;2023-03-01T06:20:25;22.47;;;16.10;;
6207;SDS011;3137;51.550;7.060;2023-03-01T06:22:53;27.00;;;16.67;;
6207;SDS011;3137;51.550;7.060;2023-03-01T06:25:20;36.67;;;17.53;;
6207;SDS011;3137;51.550;7.060;2023-03-01T06:27:48;26.37;;;16.67;;
6207;SDS011;3137;51.550;7.060;2023-03-01T06:30:16;24.87;;;16.77;;
6207;SDS011;3137;51.550;7.060;2023-03-01T06:32:44;27.50;;;17.63;;
6207;SDS011;3137;51.550;7.060;2023-03-01T06:35:11;36.17;;;19.17;;
6207;SDS011;3137;51.550;7.060;2023-03-01T06:37:39;28.00;;;16.83;;
6207;SDS011;3137;51.550;7.060;2023-03-01T06:40:07;26.93;;;17.73;;
6207;SDS011;3137;51.550;7.060;2023-03-01T06:42:35;27.93;;;17.57;;
6207;SDS011;3137;51.550;7.060;2023-03-01T06:45:02;27.20;;;16.63;;
6207;SDS011;3137;51.550;7.060;2023-03-01T06:47:28;27.43;;;16.90;;
6207;SDS011;3137;51.550;7.060;2023-03-01T06:49:55;31.47;;;18.10;;
6207;SDS011;3137;51.550;7.060;2023-03-01T06:52:21;25.47;;;17.63;;
6207;SDS011;3137;51.550;7.060;2023-03-01T06:54:48;27.43;;;17.60;;
6207;SDS011;3137;51.550;7.060;2023-03-01T06:57:14;34.67;;;16.87;;
6207;SDS011;3137;51.550;7.060;2023-03-01T06:59:40;32.77;;;18.23;;
6207;SDS011;3137;51.550;7.060;2023-03-01T07:02:09;29.00;;;17.60;;
6207;SDS011;3137;51.550;7.060;2023-03-01T07:04:36;32.57;;;17.93;;
6207;SDS011;3137;51.550;7.060;2023-03-01T07:07:03;27.90;;;16.90;;
6207;SDS011;3137;51.550;7.060;2023-03-01T07:09:30;34.13;;;19.20;;
6207;SDS011;3137;51.550;7.060;2023-03-01T07:11:56;27.23;;;17.23;;
6207;SDS011;3137;51.550;7.060;2023-03-01T07:14:23;29.93;;;18.17;;
6207;SDS011;3137;51.550;7.060;2023-03-01T07:16:54;30.97;;;18.37;;
6207;SDS011;3137;51.550;7.060;2023-03-01T07:19:21;25.10;;;18.40;;
6207;SDS011;3137;51.550;7.060;2023-03-01T07:21:48;31.90;;;18.67;;
6207;SDS011;3137;51.550;7.060;2023-03-01T07:24:14;35.30;;;17.77;;
6207;SDS011;3137;51.550;7.060;2023-03-01T07:26:41;32.27;;;17.93;;
6207;SDS011;3137;51.550;7.060;2023-03-01T07:29:09;33.70;;;17.47;;
6207;SDS011;3137;51.550;7.060;2023-03-01T07:31:36;36.93;;;18.90;;
6207;SDS011;3137;51.550;7.060;2023-03-01T07:34:02;26.97;;;17.67;;
6207;SDS011;3137;51.550;7.060;2023-03-01T07:36:29;49.57;;;16.70;;
6207;SDS011;3137;51.550;7.060;2023-03-01T07:38:56;26.17;;;17.17;;
6207;SDS011;3137;51.550;7.060;2023-03-01T07:41:22;31.63;;;18.03;;
6207;SDS011;3137;51.550;7.060;2023-03-01T07:43:49;26.67;;;17.80;;
6207;SDS011;3137;51.550;7.060;2023-03-01T07:46:15;28.70;;;17.83;;
6207;SDS011;3137;51.550;7.060;2023-03-01T07:48:42;31.63;;;18.17;;
6207;SDS011;3137;51.550;7.060;2023-03-01T07:51:09;30.33;;;18.17;;
6207;SDS011;3137;51.550;7.060;2023-03-01T07:53:35;27.60;;;16.40;;
6207;SDS011;3137;51.550;7.060;2023-03-01T07:58:37;35.20;;;17.63;;
6207;SDS011;3137;51.550;7.060;2023-03-01T08:01:05;26.67;;;16.87;;
6207;SDS011;3137;51.550;7.060;2023-03-01T08:03:33;26.20;;;16.70;;
6207;SDS011;3137;51.550;7.060;2023-03-01T08:06:01;32.80;;;18.57;;
6207;SDS011;3137;51.550;7.060;2023-03-01T08:08:28;27.90;;;18.17;;
6207;SDS011;3137;51.550;7.060;2023-03-01T08:10:58;33.70;;;17.50;;
6207;SDS011;3137;51.550;7.060;2023-03-01T08:13:26;30.80;;;16.87;;
6207;SDS011;3137;51.550;7.060;2023-03-01T08:15:53;34.97;;;17.13;;
6207;SDS011;3137;51.550;7.060;2023-03-01T08:18:20;29.63;;;16.53;;
6207;SDS011;3137;51.550;7.060;2023-03-01T08:20:47;26.40;;;17.23;;
6207;SDS011;3137;51.550;7.060;2023-03-01T08:23:13;25.77;;;16.80;;
6207;SDS011;3137;51.550;7.060;2023-03-01T08:25:40;23.93;;;16.27;;
6207;SDS011;3137;51.550;7.060;2023-03-01T08:28:06;24.10;;;16.40;;
6207;SDS011;3137;51.550;7.060;2023-03-01T08:30:33;25.07;;;17.00;;
6207;SDS011;3137;51.550;7.060;2023-03-01T08:33:00;25.73;;;16.50;;
6207;SDS011;3137;51.550;7.060;2023-03-01T08:35:27;24.53;;;16.63;;
6207;SDS011;3137;51.550;7.060;2023-03-01T08:37:53;24.97;;;17.57;;
6207;SDS011;3137;51.550;7.060;2023-03-01T08:40:19;34.53;;;17.40;;
6207;SDS011;3137;51.550;7.060;2023-03-01T08:42:46;19.10;;;14.90;;
6207;SDS011;3137;51.550;7.060;2023-03-01T08:45:12;21.43;;;15.77;;
6207;SDS011;3137;51.550;7.060;2023-03-01T08:47:40;23.13;;;15.83;;
6207;SDS011;3137;51.550;7.060;2023-03-01T08:50:06;22.60;;;16.10;;
6207;SDS011;3137;51.550;7.060;2023-03-01T08:52:33;22.17;;;14.73;;
6207;SDS011;3137;51.550;7.060;2023-03-01T08:55:00;22.20;;;15.47;;
6207;SDS011;3137;51.550;7.060;2023-03-01T08:57:27;24.37;;;15.67;;
6207;SDS011;3137;51.550;7.060;2023-03-01T08:59:53;25.77;;;15.90;;
6207;SDS011;3137;51.550;7.060;2023-03-01T09:02:22;20.57;;;15.23;;
6207;SDS011;3137;51.550;7.060;2023-03-01T09:04:48;27.10;;;15.83;;
6207;SDS011;3137;51.550;7.060;2023-03-01T09:07:15;24.90;;;14.97;;
6207;SDS011;3137;51.550;7.060;2023-03-01T09:09:41;23.30;;;15.07;;
6207;SDS011;3137;51.550;7.060;2023-03-01T09:12:08;27.17;;;16.47;;
6207;SDS011;3137;51.550;7.060;2023-03-01T09:14:34;18.20;;;14.93;;
6207;SDS011;3137;51.550;7.060;2023-03-01T09:17:03;22.67;;;15.40;;
6207;SDS011;3137;51.550;7.060;2023-03-01T09:19:29;24.30;;;16.17;;
6207;SDS011;3137;51.550;7.060;2023-03-01T09:21:56;25.97;;;15.60;;
6207;SDS011;3137;51.550;7.060;2023-03-01T09:24:24;27.00;;;16.10;;
6207;SDS011;3137;51.550;7.060;2023-03-01T09:26:53;23.60;;;16.27;;
6207;SDS011;3137;51.550;7.060;2023-03-01T09:29:21;23.47;;;16.30;;
6207;SDS011;3137;51.550;7.060;2023-03-01T09:31:49;27.20;;;17.97;;
6207;SDS011;3137;51.550;7.060;2023-03-01T09:34:15;20.30;;;15.10;;
6207;SDS011;3137;51.550;7.060;2023-03-01T09:36:49;20.90;;;15.63;;
6207;SDS011;3137;51.550;7.060;2023-03-01T09:39:17;23.13;;;16.90;;
6207;SDS011;3137;51.550;7.060;2023-03-01T09:44:16;24.13;;;17.10;;
6207;SDS011;3137;51.550;7.060;2023-03-01T09:46:45;21.57;;;15.17;;
6207;SDS011;3137;51.550;7.060;2023-03-01T09:49:14;20.20;;;15.07;;
6207;SDS011;3137;51.550;7.060;2023-03-01T09:51:50;16.63;;;14.33;;
6207;SDS011;3137;51.550;7.060;2023-03-01T09:54:25;16.57;;;13.30;;
6207;SDS011;3137;51.550;7.060;2023-03-01T09:57:05;21.50;;;12.70;;
6207;SDS011;3137;51.550;7.060;2023-03-01T09:59:51;17.97;;;13.77;;
6207;SDS011;3137;51.550;7.060;2023-03-01T10:02:38;16.27;;;14.27;;
6207;SDS011;3137;51.550;7.060;2023-03-01T10:05:25;14.77;;;13.10;;
6207;SDS011;3137;51.550;7.060;2023-03-01T10:10:33;18.23;;;12.60;;
6207;SDS011;3137;51.550;7.060;2023-03-01T10:15:51;15.80;;;13.33;;
6207;SDS011;3137;51.550;7.060;2023-03-01T10:18:26;14.07;;;12.57;;
6207;SDS011;3137;51.550;7.060;2023-03-01T10:20:58;13.80;;;12.40;;
6207;SDS011;3137;51.550;7.060;2023-03-01T10:23:27;21.10;;;12.63;;
6207;SDS011;3137;51.550;7.060;2023-03-01T10:31:26;19.47;;;13.47;;
6207;SDS011;3137;51.550;7.060;2023-03-01T10:34:16;14.40;;;12.50;;
6207;SDS011;3137;51.550;7.060;2023-03-01T10:36:57;15.00;;;12.60;;
6207;SDS011;3137;51.550;7.060;2023-03-01T10:39:27;17.57;;;12.07;;
6207;SDS011;3137;51.550;7.060;2023-03-01T10:41:54;17.27;;;11.30;;
6207;SDS011;3137;51.550;7.060;2023-03-01T10:44:40;15.23;;;11.57;;
6207;SDS011;3137;51.550;7.060;2023-03-01T10:47:15;15.20;;;12.30;;
6207;SDS011;3137;51.550;7.060;2023-03-01T10:52:30;12.80;;;11.63;;
6207;SDS011;3137;51.550;7.060;2023-03-01T10:55:00;17.80;;;12.50;;
6207;SDS011;3137;51.550;7.060;2023-03-01T10:57:31;12.97;;;11.60;;
6207;SDS011;3137;51.550;7.060;2023-03-01T11:00:19;16.80;;;12.53;;
6207;SDS011;3137;51.550;7.060;2023-03-01T11:02:49;15.00;;;12.57;;
6207;SDS011;3137;51.550;7.060;2023-03-01T11:05:26;12.53;;;11.43;;
6207;SDS011;3137;51.550;7.060;2023-03-01T11:07:55;18.10;;;12.63;;
6207;SDS011;3137;51.550;7.060;2023-03-01T11:10:24;18.33;;;11.43;;
6207;SDS011;3137;51.550;7.060;2023-03-01T11:13:08;20.33;;;12.63;;
6207;SDS011;3137;51.550;7.060;2023-03-01T11:15:58;16.00;;;11.60;;
6207;SDS011;3137;51.550;7.060;2023-03-01T11:18:26;15.03;;;11.97;;
6207;SDS011;3137;51.550;7.060;2023-03-01T11:21:11;12.73;;;11.37;;
6207;SDS011;3137;51.550;7.060;2023-03-01T11:23:38;33.43;;;13.50;;
6207;SDS011;3137;51.550;7.060;2023-03-01T11:26:07;12.77;;;11.63;;
6207;SDS011;3137;51.550;7.060;2023-03-01T11:28:38;18.97;;;12.17;;
6207;SDS011;3137;51.550;7.060;2023-03-01T11:31:07;13.70;;;12.27;;
6207;SDS011;3137;51.550;7.060;2023-03-01T11:33:41;13.67;;;11.60;;
6207;SDS011;3137;51.550;7.060;2023-03-01T11:38:55;11.40;;;10.47;;
6207;SDS011;3137;51.550;7.060;2023-03-01T11:41:28;15.03;;;11.13;;
6207;SDS011;3137;51.550;7.060;2023-03-01T11:44:02;17.03;;;12.00;;
6207;SDS011;3137;51.550;7.060;2023-03-01T11:46:56;12.93;;;11.73;;
6207;SDS011;3137;51.550;7.060;2023-03-01T12:08:28;13.17;;;11.30;;
6207;SDS011;3137;51.550;7.060;2023-03-01T12:17:13;12.73;;;10.50;;
6207;SDS011;3137;51.550;7.060;2023-03-01T12:20:00;11.33;;;10.33;;
6207;SDS011;3137;51.550;7.060;2023-03-01T12:23:00;11.73;;;10.73;;
6207;SDS011;3137;51.550;7.060;2023-03-01T12:25:58;10.53;;;9.63;;
6207;SDS011;3137;51.550;7.060;2023-03-01T12:34:43;12.30;;;11.07;;
6207;SDS011;3137;51.550;7.060;2023-03-01T12:37:54;13.53;;;11.20;;
6207;SDS011;3137;51.550;7.060;2023-03-01T12:40:43;13.43;;;9.83;;
6207;SDS011;3137;51.550;7.060;2023-03-01T12:43:39;11.77;;;10.67;;
6207;SDS011;3137;51.550;7.060;2023-03-01T12:49:17;11.83;;;10.70;;
6207;SDS011;3137;51.550;7.060;2023-03-01T12:51:56;10.23;;;9.43;;
6207;SDS011;3137;51.550;7.060;2023-03-01T12:54:47;11.07;;;9.73;;
6207;SDS011;3137;51.550;7.060;2023-03-01T12:57:17;11.60;;;10.60;;
6207;SDS011;3137;51.550;7.060;2023-03-01T13:02:49;15.90;;;11.33;;
6207;SDS011;3137;51.550;7.060;2023-03-01T13:08:08;13.43;;;11.40;;
6207;SDS011;3137;51.550;7.060;2023-03-01T13:11:04;14.10;;;11.30;;
6207;SDS011;3137;51.550;7.060;2023-03-01T13:13:33;12.23;;;10.93;;
6207;SDS011;3137;51.550;7.060;2023-03-01T13:16:19;12.03;;;11.00;;
6207;SDS011;3137;51.550;7.060;2023-03-01T13:21:48;11.67;;;10.57;;
6207;SDS011;3137;51.550;7.060;2023-03-01T13:24:38;11.90;;;10.90;;
6207;SDS011;3137;51.550;7.060;2023-03-01T13:32:21;13.13;;;11.97;;
6207;SDS011;3137;51.550;7.060;2023-03-01T13:37:46;15.33;;;11.80;;
6207;SDS011;3137;51.550;7.060;2023-03-01T13:42:43;13.50;;;12.17;;
6207;SDS011;3137;51.550;7.060;2023-03-01T13:45:40;12.70;;;11.60;;
6207;SDS011;3137;51.550;7.060;2023-03-01T13:48:15;13.17;;;11.83;;
6207;SDS011;3137;51.550;7.060;2023-03-01T13:50:50;12.63;;;11.60;;
6207;SDS011;3137;51.550;7.060;2023-03-01T13:53:25;13.13;;;11.87;;
6207;SDS011;3137;51.550;7.060;2023-03-01T13:55:56;19.37;;;12.50;;
6207;SDS011;3137;51.550;7.060;2023-03-01T13:58:33;14.80;;;12.73;;
6207;SDS011;3137;51.550;7.060;2023-03-01T14:01:23;12.97;;;11.73;;
6207;SDS011;3137;51.550;7.060;2023-03-01T14:03:55;12.20;;;11.27;;
6207;SDS011;3137;51.550;7.060;2023-03-01T14:06:23;13.93;;;12.40;;
6207;SDS011;3137;51.550;7.060;2023-03-01T14:09:03;15.27;;;13.77;;
6207;SDS011;3137;51.550;7.060;2023-03-01T14:14:40;13.67;;;12.27;;
6207;SDS011;3137;51.550;7.060;2023-03-01T14:19:54;13.47;;;12.27;;
6207;SDS011;3137;51.550;7.060;2023-03-01T14:24:58;14.20;;;12.83;;
6207;SDS011;3137;51.550;7.060;2023-03-01T14:27:33;14.83;;;12.37;;
6207;SDS011;3137;51.550;7.060;2023-03-01T14:30:04;15.23;;;13.47;;
6207;SDS011;3137;51.550;7.060;2023-03-01T14:32:36;14.23;;;12.73;;
6207;SDS011;3137;51.550;7.060;2023-03-01T14:35:25;16.37;;;13.93;;
6207;SDS011;3137;51.550;7.060;2023-03-01T14:37:54;15.97;;;12.67;;
6207;SDS011;3137;51.550;7.060;2023-03-01T14:40:21;16.03;;;12.60;;
6207;SDS011;3137;51.550;7.060;2023-03-01T14:42:51;13.40;;;12.10;;
6207;SDS011;3137;51.550;7.060;2023-03-01T14:45:19;13.30;;;12.10;;
6207;SDS011;3137;51.550;7.060;2023-03-01T14:47:46;14.53;;;11.97;;
6207;SDS011;3137;51.550;7.060;2023-03-01T14:52:55;15.67;;;11.90;;
6207;SDS011;3137;51.550;7.060;2023-03-01T14:58:03;13.03;;;11.83;;
6207;SDS011;3137;51.550;7.060;2023-03-01T15:00:31;14.17;;;10.97;;
6207;SDS011;3137;51.550;7.060;2023-03-01T15:03:01;12.60;;;11.40;;
6207;SDS011;3137;51.550;7.060;2023-03-01T15:05:35;20.30;;;11.63;;
6207;SDS011;3137;51.550;7.060;2023-03-01T15:08:02;17.20;;;11.23;;
6207;SDS011;3137;51.550;7.060;2023-03-01T15:10:31;18.00;;;11.60;;
6207;SDS011;3137;51.550;7.060;2023-03-01T15:13:09;13.70;;;12.50;;
6207;SDS011;3137;51.550;7.060;2023-03-01T15:18:37;13.53;;;12.13;;
6207;SDS011;3137;51.550;7.060;2023-03-01T15:21:18;17.70;;;12.30;;
6207;SDS011;3137;51.550;7.060;2023-03-01T15:23:49;12.83;;;11.60;;
6207;SDS011;3137;51.550;7.060;2023-03-01T15:26:23;16.23;;;12.60;;
6207;SDS011;3137;51.550;7.060;2023-03-01T15:28:52;13.57;;;12.20;;
6207;SDS011;3137;51.550;7.060;2023-03-01T15:31:25;13.10;;;11.80;;
6207;SDS011;3137;51.550;7.060;2023-03-01T15:34:07;11.70;;;10.67;;
6207;SDS011;3137;51.550;7.060;2023-03-01T15:36:52;14.37;;;12.70;;
6207;SDS011;3137;51.550;7.060;2023-03-01T15:39:39;14.80;;;12.47;;
6207;SDS011;3137;51.550;7.060;2023-03-01T15:42:13;14.20;;;12.70;;
6207;SDS011;3137;51.550;7.060;2023-03-01T15:47:47;13.50;;;12.10;;
6207;SDS011;3137;51.550;7.060;2023-03-01T15:50:23;15.33;;;11.70;;
6207;SDS011;3137;51.550;7.060;2023-03-01T15:52:56;15.47;;;13.50;;
6207;SDS011;3137;51.550;7.060;2023-03-01T15:55:26;13.47;;;11.93;;
6207;SDS011;3137;51.550;7.060;2023-03-01T15:57:59;13.47;;;11.87;;
6207;SDS011;3137;51.550;7.060;2023-03-01T16:00:29;15.00;;;13.00;;
6207;SDS011;3137;51.550;7.060;2023-03-01T16:02:56;12.63;;;11.53;;
6207;SDS011;3137;51.550;7.060;2023-03-01T16:05:23;13.57;;;12.17;;
6207;SDS011;3137;51.550;7.060;2023-03-01T16:07:53;12.80;;;11.33;;
6207;SDS011;3137;51.550;7.060;2023-03-01T16:10:20;12.83;;;11.67;;
6207;SDS011;3137;51.550;7.060;2023-03-01T16:12:47;16.63;;;11.73;;
6207;SDS011;3137;51.550;7.060;2023-03-01T16:15:15;13.93;;;12.53;;
6207;SDS011;3137;51.550;7.060;2023-03-01T16:17:44;16.23;;;11.53;;
6207;SDS011;3137;51.550;7.060;2023-03-01T16:20:20;13.70;;;12.33;;
6207;SDS011;3137;51.550;7.060;2023-03-01T16:22:54;13.10;;;11.83;;
6207;SDS011;3137;51.550;7.060;2023-03-01T16:25:23;12.97;;;11.80;;
6207;SDS011;3137;51.550;7.060;2023-03-01T16:27:50;14.43;;;11.90;;
6207;SDS011;3137;51.550;7.060;2023-03-01T16:30:19;13.47;;;11.23;;
6207;SDS011;3137;51.550;7.060;2023-03-01T16:32:47;13.87;;;11.70;;
6207;SDS011;3137;51.550;7.060;2023-03-01T16:35:15;12.73;;;11.33;;
6207;SDS011;3137;51.550;7.060;2023-03-01T16:37:44;11.87;;;10.33;;
6207;SDS011;3137;51.550;7.060;2023-03-01T16:40:21;12.77;;;10.63;;
6207;SDS011;3137;51.550;7.060;2023-03-01T16:42:53;11.70;;;9.73;;
6207;SDS011;3137;51.550;7.060;2023-03-01T16:45:25;10.87;;;9.87;;
6207;SDS011;3137;51.550;7.060;2023-03-01T16:47:53;13.00;;;11.47;;
6207;SDS011;3137;51.550;7.060;2023-03-01T16:50:21;12.47;;;11.00;;
6207;SDS011;3137;51.550;7.060;2023-03-01T16:52:48;12.70;;;10.73;;
6207;SDS011;3137;51.550;7.060;2023-03-01T16:55:15;13.67;;;10.50;;